Terminal Aerodrome Forecast
Issued by NWS Jackson, MS

Home | Current Version | Previous Version | Text Only | Print | Product List | Glossary On
Versions: 1 2 3 4 5 6 7 8 9 10 11 12 13 14 15
000
FTUS44 KJAN 291120
TAFMEI
TAF
KMEI 291120Z 2912/3012 16014G22KT P6SM BKN015 OVC025
     FM291500 16020G30KT P6SM SCT035 BKN250
     FM292300 15016G24KT P6SM BKN035
     FM300300 16015KT P6SM BKN025=

USA.gov is the U.S. government's official web portal to all federal, state and local government web resources and services.